Terminal Aerodrome Forecast
Issued by NWS

Home | Current Version | Previous Version | Text Only | Print | Product List | Glossary On
Versions: 1 2 3 4 5 6 7 8 9 10 11 12
629
FTUS44 KSJT 211720
TAFBBD
TAF
KBBD 211720Z 2118/2218 21010G20KT P6SM SCT150
     FM212000 24024G30KT P6SM BKN150
     FM220000 24016G22KT P6SM OVC150
     FM220600 26025G35KT P6SM SKC
      AMD NOT SKED=

USA.gov is the U.S. government's official web portal to all federal, state and local government web resources and services.